Time;durP1;ratioP1;P1;durP2;ratioP2;P2;SDS_P1;SDS_P2;PMS_P1;PMS_P2;Temp;Humidity;BMP_temperature;BMP_pressure;BME280_temperature;BME280_humidity;BME280_pressure;Samples;Min_cycle;Max_cycle;Signal;HPM_P1;HPM_P2
2023/03/17 00:00:11;;;;;;;5.93;1.80;;;;;;;4.43;69.66;100707.44;6005402;28;20038;-72
2023/03/17 00:03:06;;;;;;;3.90;1.92;;;;;;;4.41;69.93;100711.97;6005570;28;20054;-70
2023/03/17 00:06:03;;;;;;;3.80;1.50;;;;;;;4.42;69.57;100700.53;6005957;28;20039;-73
2023/03/17 00:08:59;;;;;;;3.72;1.50;;;;;;;4.40;70.17;100697.19;6005878;28;20034;-71
2023/03/17 00:11:54;;;;;;;3.75;2.08;;;;;;;4.29;69.63;100683.97;6005339;28;20105;-72
2023/03/17 00:14:49;;;;;;;3.67;1.30;;;;;;;4.27;70.36;100685.84;6004601;28;20089;-70
2023/03/17 00:17:46;;;;;;;4.00;1.73;;;;;;;4.30;70.73;100696.13;6005762;28;20093;-72
2023/03/17 00:20:42;;;;;;;3.22;1.75;;;;;;;4.25;71.46;100698.25;6005856;28;20517;-71
2023/03/17 00:23:37;;;;;;;3.70;1.65;;;;;;;4.22;71.89;100694.03;6004798;28;20031;-71
2023/03/17 00:26:32;;;;;;;4.28;1.58;;;;;;;4.09;72.76;100684.50;6005524;28;20049;-70
2023/03/17 00:29:28;;;;;;;2.57;0.97;;;;;;;4.06;72.51;100682.09;6005489;28;20475;-71
2023/03/17 00:32:23;;;;;;;2.67;1.17;;;;;;;4.06;71.90;100679.47;6005120;28;20041;-71
2023/03/17 00:35:24;;;;;;;3.23;1.40;;;;;;;4.12;71.26;100672.03;6004961;28;20089;-71
2023/03/17 00:38:20;;;;;;;4.50;1.30;;;;;;;4.09;71.55;100663.50;6005002;28;20026;-70
2023/03/17 00:41:15;;;;;;;2.90;1.52;;;;;;;4.12;71.81;100676.41;6004942;28;20049;-71
2023/03/17 00:44:11;;;;;;;4.10;1.40;;;;;;;4.13;71.13;100647.44;6004254;28;20046;-71
2023/03/17 00:47:08;;;;;;;4.43;1.63;;;;;;;4.14;71.10;100654.38;6005373;28;20169;-71
2023/03/17 00:50:04;;;;;;;4.05;1.75;;;;;;;4.19;71.37;100670.63;6005002;28;20027;-72
2023/03/17 00:53:00;;;;;;;3.25;1.50;;;;;;;4.14;70.73;100638.63;6004407;28;20061;-70
2023/03/17 00:55:55;;;;;;;4.28;1.50;;;;;;;4.25;70.95;100630.00;6004838;28;20046;-71
2023/03/17 00:58:51;;;;;;;3.67;1.57;;;;;;;4.31;70.39;100644.47;6004785;28;20043;-71
2023/03/17 01:01:46;;;;;;;3.17;1.42;;;;;;;4.58;69.44;100646.00;6004903;28;20513;-70
2023/03/17 01:04:44;;;;;;;3.95;1.40;;;;;;;4.44;69.49;100635.63;6004086;28;20379;-71
2023/03/17 01:07:39;;;;;;;2.85;1.52;;;;;;;4.64;69.11;100637.69;6004856;28;20022;-71
2023/03/17 01:10:35;;;;;;;3.78;1.80;;;;;;;4.50;68.98;100624.69;6004770;28;20058;-71
2023/03/17 01:13:30;;;;;;;4.03;1.50;;;;;;;4.44;69.72;100625.13;6003748;28;20030;-73
2023/03/17 01:16:26;;;;;;;4.40;2.00;;;;;;;4.31;71.25;100633.97;6004493;28;20466;-71
2023/03/17 01:19:22;;;;;;;3.08;1.33;;;;;;;4.18;71.27;100641.91;6004360;28;20038;-72
2023/03/17 01:22:17;;;;;;;3.83;1.60;;;;;;;4.09;72.13;100634.66;6003861;28;20034;-72
2023/03/17 01:25:13;;;;;;;4.77;1.37;;;;;;;4.06;72.59;100630.47;6003138;28;20043;-73
2023/03/17 01:28:12;;;;;;;5.13;1.67;;;;;;;4.00;73.12;100632.66;6003850;28;20427;-70
2023/03/17 01:31:08;;;;;;;3.22;1.90;;;;;;;3.95;73.71;100655.75;6004120;28;20089;-70
2023/03/17 01:34:04;;;;;;;4.07;1.65;;;;;;;3.83;74.15;100635.63;6003219;28;20042;-71
2023/03/17 01:37:00;;;;;;;3.83;1.50;;;;;;;3.74;74.42;100639.72;6004157;28;20039;-71
2023/03/17 01:39:55;;;;;;;3.63;1.85;;;;;;;3.72;75.35;100619.78;6004025;28;20418;-72
2023/03/17 01:43:01;;;;;;;3.57;1.70;;;;;;;3.74;75.57;100625.75;6002897;28;20109;-75
2023/03/17 01:46:15;;;;;;;2.90;1.38;;;;;;;4.03;73.80;100629.81;6003786;28;20490;-72
2023/03/17 01:49:19;;;;;;;6.05;1.55;;;;;;;4.10;73.24;100636.34;6003615;28;20483;-72
2023/03/17 01:52:15;;;;;;;4.78;1.52;;;;;;;4.05;73.20;100639.25;6003180;28;20026;-71
2023/03/17 01:55:15;;;;;;;3.00;1.60;;;;;;;3.91;73.93;100620.19;6002336;28;20039;-71
2023/03/17 01:58:11;;;;;;;7.60;2.20;;;;;;;4.20;72.89;100622.47;6003667;28;20042;-72
2023/03/17 02:01:06;;;;;;;5.03;2.10;;;;;;;4.58;70.55;100638.13;6003318;28;20038;-71
2023/03/17 02:04:03;;;;;;;4.10;1.80;;;;;;;4.79;69.05;100628.69;6002938;28;20478;-71
2023/03/17 02:06:58;;;;;;;6.57;1.92;;;;;;;4.77;69.29;100617.47;6003556;28;20450;-70
2023/03/17 02:09:55;;;;;;;4.63;1.77;;;;;;;4.89;68.60;100631.50;6001973;28;20033;-72
2023/03/17 02:12:54;;;;;;;9.57;2.33;;;;;;;4.92;68.19;100619.94;6001633;28;20034;-71
2023/03/17 02:15:51;;;;;;;3.25;1.95;;;;;;;5.04;67.46;100619.00;6001860;28;20066;-72
2023/03/17 02:18:46;;;;;;;4.20;2.00;;;;;;;5.13;66.70;100586.81;6003064;28;20037;-71
2023/03/17 02:21:44;;;;;;;8.02;2.50;;;;;;;5.19;66.76;100607.38;6003046;28;20035;-70
2023/03/17 02:24:43;;;;;;;6.22;2.17;;;;;;;5.20;66.63;100593.25;6002704;28;20113;-71
2023/03/17 02:27:41;;;;;;;5.93;2.10;;;;;;;5.26;66.04;100613.84;6001876;28;20035;-69
2023/03/17 02:30:37;;;;;;;4.38;2.13;;;;;;;5.23;65.78;100593.03;6001447;28;20105;-71
2023/03/17 02:33:32;;;;;;;5.33;1.90;;;;;;;5.54;64.78;100605.56;6002023;28;20039;-71
2023/03/17 02:36:27;;;;;;;4.97;2.13;;;;;;;5.58;64.45;100593.84;6002442;28;20085;-72
2023/03/17 02:39:24;;;;;;;4.43;1.97;;;;;;;5.59;63.88;100569.22;6002339;28;20030;-70
2023/03/17 02:42:19;;;;;;;5.00;2.53;;;;;;;5.87;63.19;100574.03;6001840;28;20023;-72
2023/03/17 02:45:15;;;;;;;4.38;2.22;;;;;;;5.91;62.44;100567.59;6002538;28;20158;-71
2023/03/17 02:48:12;;;;;;;5.97;2.47;;;;;;;5.99;62.38;100567.81;6002863;28;20045;-72
2023/03/17 02:51:07;;;;;;;5.93;2.15;;;;;;;5.99;61.31;100557.28;6002247;28;20034;-72
2023/03/17 02:54:03;;;;;;;4.40;1.95;;;;;;;6.04;61.82;100585.03;6001587;28;20119;-72
2023/03/17 02:56:59;;;;;;;6.55;2.83;;;;;;;5.99;61.06;100573.09;6002189;28;20038;-70
2023/03/17 02:59:54;;;;;;;5.18;2.08;;;;;;;6.07;61.06;100595.31;6002328;28;20117;-72
2023/03/17 03:02:50;;;;;;;6.60;2.53;;;;;;;6.04;61.09;100590.28;6001234;28;20039;-72
2023/03/17 03:05:46;;;;;;;5.70;3.10;;;;;;;6.15;61.34;100608.72;6002274;28;20089;-70
2023/03/17 03:08:41;;;;;;;5.57;2.28;;;;;;;6.12;61.22;100612.44;6002568;28;20556;-72
2023/03/17 03:11:37;;;;;;;4.65;2.03;;;;;;;6.09;61.20;100603.97;6001631;28;20122;-71
2023/03/17 03:14:32;;;;;;;5.70;2.28;;;;;;;6.01;61.23;100606.34;6001657;28;20467;-72
2023/03/17 03:17:28;;;;;;;6.57;2.43;;;;;;;5.94;61.61;100596.31;6002375;28;20038;-72
2023/03/17 03:20:24;;;;;;;5.18;2.13;;;;;;;5.94;61.45;100600.72;6001774;28;20095;-70
2023/03/17 03:23:19;;;;;;;5.85;2.60;;;;;;;5.90;61.53;100600.09;6001281;28;20046;-72
2023/03/17 03:26:15;;;;;;;4.73;1.90;;;;;;;5.91;62.25;100617.59;6002066;28;20046;-72
2023/03/17 03:29:11;;;;;;;5.43;2.35;;;;;;;5.82;62.19;100613.00;6002070;28;20282;-70
2023/03/17 03:32:07;;;;;;;6.53;2.63;;;;;;;5.70;62.82;100603.44;5999746;28;20497;-70
2023/03/17 03:35:03;;;;;;;5.22;1.92;;;;;;;5.78;62.96;100610.72;6001672;28;20023;-73
2023/03/17 03:37:58;;;;;;;6.57;2.55;;;;;;;5.79;62.82;100601.84;5996602;28;20034;-72
2023/03/17 03:40:54;;;;;;;6.07;2.20;;;;;;;5.76;63.32;100596.88;6001768;28;20391;-71
2023/03/17 03:43:51;;;;;;;4.40;2.20;;;;;;;5.74;63.63;100604.84;6001654;28;20305;-71
2023/03/17 03:46:47;;;;;;;5.80;2.25;;;;;;;5.76;62.99;100602.94;6002180;28;20493;-73
2023/03/17 03:49:42;;;;;;;5.50;2.08;;;;;;;5.76;63.22;100595.03;6003597;28;20058;-73
2023/03/17 03:52:38;;;;;;;6.43;2.50;;;;;;;5.76;63.25;100589.78;6005951;28;20026;-73
2023/03/17 03:55:34;;;;;;;6.72;2.42;;;;;;;5.69;63.54;100593.84;6005868;28;20027;-71
2023/03/17 03:58:30;;;;;;;8.15;2.40;;;;;;;5.65;63.68;100584.53;6005456;28;20035;-72
2023/03/17 04:01:26;;;;;;;6.43;2.83;;;;;;;5.69;63.49;100585.97;6006137;28;20070;-72
2023/03/17 04:04:21;;;;;;;7.53;2.30;;;;;;;5.65;63.59;100574.00;6005173;28;20278;-70
2023/03/17 04:07:17;;;;;;;6.55;2.38;;;;;;;5.71;63.70;100568.25;6006085;28;20085;-71
2023/03/17 04:10:13;;;;;;;7.80;3.07;;;;;;;5.85;62.85;100554.91;6006077;28;20454;-71
2023/03/17 04:13:08;;;;;;;7.20;2.60;;;;;;;5.84;62.83;100558.44;6005030;28;20333;-71
2023/03/17 04:16:04;;;;;;;6.33;2.57;;;;;;;5.83;62.18;100546.28;6005109;28;20570;-71
2023/03/17 04:18:59;;;;;;;6.07;2.45;;;;;;;5.93;62.59;100567.47;6004387;28;20034;-72
2023/03/17 04:21:55;;;;;;;4.93;1.90;;;;;;;5.84;62.75;100566.34;6004568;28;20421;-72
2023/03/17 04:24:50;;;;;;;5.28;2.55;;;;;;;5.84;62.11;100542.66;6005586;28;20042;-71
2023/03/17 04:27:45;;;;;;;6.13;2.37;;;;;;;5.75;62.21;100526.78;6004882;28;20379;-71
2023/03/17 04:30:40;;;;;;;5.10;2.23;;;;;;;5.60;64.26;100523.53;6005248;28;20047;-72
2023/03/17 04:33:36;;;;;;;7.13;2.70;;;;;;;5.39;65.17;100514.69;6004448;28;20041;-72
2023/03/17 04:36:31;;;;;;;6.77;2.60;;;;;;;5.39;65.17;100517.31;6005552;28;20430;-73
2023/03/17 04:39:27;;;;;;;7.47;3.15;;;;;;;5.33;64.64;100499.38;6005056;28;20030;-71
2023/03/17 04:42:22;;;;;;;5.33;2.37;;;;;;;5.36;65.24;100499.97;6004840;28;20085;-71
2023/03/17 04:45:17;;;;;;;7.33;2.40;;;;;;;5.33;65.17;100510.72;6005543;28;20030;-71
2023/03/17 04:48:12;;;;;;;5.97;2.47;;;;;;;5.19;66.03;100518.00;6004870;28;20042;-71
2023/03/17 04:51:08;;;;;;;7.00;2.77;;;;;;;5.07;66.13;100505.78;6004732;28;20038;-70
2023/03/17 04:54:04;;;;;;;7.40;2.45;;;;;;;5.00;67.03;100517.72;6004069;28;20747;-73
2023/03/17 04:56:59;;;;;;;5.55;2.00;;;;;;;4.68;68.38;100538.50;6005659;28;20031;-72
2023/03/17 04:59:56;;;;;;;5.78;2.22;;;;;;;4.15;70.92;100519.63;6004902;28;20066;-71
2023/03/17 05:02:51;;;;;;;5.35;2.35;;;;;;;3.90;72.29;100530.19;6003117;28;20050;-70
2023/03/17 05:05:47;;;;;;;6.67;2.60;;;;;;;3.82;73.63;100547.41;6004234;28;20085;-73
2023/03/17 05:08:45;;;;;;;7.80;2.42;;;;;;;3.84;74.31;100543.72;6004397;28;20093;-70
2023/03/17 05:11:41;;;;;;;5.70;2.60;;;;;;;4.00;72.85;100552.19;6004546;28;20050;-71
2023/03/17 05:14:36;;;;;;;5.32;2.30;;;;;;;3.89;73.41;100531.13;6003675;28;20479;-74
2023/03/17 05:17:31;;;;;;;7.50;2.90;;;;;;;3.99;72.86;100554.94;6004021;28;20035;-73
2023/03/17 05:20:27;;;;;;;5.72;2.90;;;;;;;3.97;73.34;100547.16;6004438;28;20272;-71
2023/03/17 05:23:22;;;;;;;5.53;2.63;;;;;;;3.90;74.01;100550.31;6003016;28;20041;-71
2023/03/17 05:26:18;;;;;;;7.40;2.67;;;;;;;3.81;73.78;100540.47;6004650;28;20510;-71
2023/03/17 05:29:13;;;;;;;6.88;3.08;;;;;;;3.57;75.10;100538.63;6003754;28;20521;-71
2023/03/17 05:32:08;;;;;;;6.07;2.60;;;;;;;3.41;76.12;100545.84;6003534;28;20121;-73
2023/03/17 05:35:04;;;;;;;8.55;3.40;;;;;;;3.11;77.64;100534.81;6004261;28;20046;-70
2023/03/17 05:38:00;;;;;;;7.38;2.70;;;;;;;2.95;78.74;100529.78;6003499;28;20039;-72
2023/03/17 05:40:55;;;;;;;6.32;2.80;;;;;;;2.83;80.03;100529.75;6004240;28;20103;-71
2023/03/17 05:43:51;;;;;;;9.43;3.15;;;;;;;2.87;80.69;100536.47;6003236;28;20042;-72
2023/03/17 05:46:46;;;;;;;5.67;3.17;;;;;;;2.72;80.52;100516.53;6003157;28;20478;-71
2023/03/17 05:49:41;;;;;;;8.40;2.77;;;;;;;2.85;80.89;100517.41;6003200;28;20270;-72
2023/03/17 05:52:37;;;;;;;8.10;2.73;;;;;;;2.87;80.78;100521.59;6002602;28;20278;-72
2023/03/17 05:55:32;;;;;;;8.77;2.80;;;;;;;3.02;80.65;100530.19;6003771;28;20085;-73
2023/03/17 05:58:27;;;;;;;8.07;3.20;;;;;;;2.98;80.30;100524.34;6002626;28;20497;-73
2023/03/17 06:01:23;;;;;;;5.50;2.80;;;;;;;3.05;80.44;100518.69;6002494;28;20027;-72
2023/03/17 06:04:18;;;;;;;6.93;3.03;;;;;;;3.19;79.42;100519.44;6002003;28;20046;-71
2023/03/17 06:07:13;;;;;;;10.40;2.90;;;;;;;3.30;78.74;100516.91;6002880;28;20039;-70
2023/03/17 06:10:10;;;;;;;7.40;2.80;;;;;;;3.25;79.32;100502.47;6003431;28;20038;-70
2023/03/17 06:13:05;;;;;;;8.45;2.85;;;;;;;3.07;79.91;100486.22;6001639;28;20093;-72
2023/03/17 06:16:01;;;;;;;6.20;2.63;;;;;;;3.10;80.10;100499.09;6002989;28;20039;-72
2023/03/17 06:18:57;;;;;;;8.32;3.10;;;;;;;3.00;81.11;100474.47;6003317;28;20027;-71
2023/03/17 06:21:52;;;;;;;8.07;3.13;;;;;;;3.02;80.61;100488.28;6002124;28;20138;-71
2023/03/17 06:24:47;;;;;;;7.03;3.20;;;;;;;3.08;80.43;100493.13;6002037;28;20390;-72
2023/03/17 06:27:43;;;;;;;6.27;2.63;;;;;;;2.91;80.49;100485.56;6003133;28;20090;-71
2023/03/17 06:30:38;;;;;;;6.70;3.20;;;;;;;3.02;80.33;100521.53;6002309;28;20278;-72
2023/03/17 06:33:34;;;;;;;5.80;2.73;;;;;;;2.98;81.07;100533.97;6001430;28;20058;-72
2023/03/17 06:36:31;;;;;;;11.10;3.40;;;;;;;2.97;81.44;100532.28;6002651;28;20504;-70
2023/03/17 06:39:26;;;;;;;7.75;2.60;;;;;;;2.95;81.43;100519.31;6002747;28;20030;-71
2023/03/17 06:42:21;;;;;;;5.25;2.50;;;;;;;3.20;81.38;100501.94;6002284;28;20062;-71
2023/03/17 06:45:17;;;;;;;4.87;2.33;;;;;;;3.70;79.68;100514.16;6002225;28;20465;-72
2023/03/17 06:48:12;;;;;;;5.20;2.33;;;;;;;3.93;77.87;100497.66;6002776;28;20328;-71
2023/03/17 06:51:08;;;;;;;7.90;2.77;;;;;;;3.85;76.60;100476.38;6002298;28;20277;-71
2023/03/17 06:54:03;;;;;;;5.40;2.65;;;;;;;3.80;77.71;100497.69;6001942;28;20026;-70
2023/03/17 06:56:58;;;;;;;6.43;2.80;;;;;;;3.61;77.95;100489.44;6001978;28;20041;-70
2023/03/17 06:59:54;;;;;;;5.43;2.63;;;;;;;3.68;78.69;100503.78;6002085;28;20027;-71
2023/03/17 07:02:50;;;;;;;8.93;2.90;;;;;;;3.96;77.80;100518.41;6002019;28;20034;-71
2023/03/17 07:05:45;;;;;;;6.55;2.78;;;;;;;3.96;77.07;100505.31;6002109;28;20282;-74
2023/03/17 07:08:41;;;;;;;6.05;2.60;;;;;;;4.15;76.43;100498.63;6002377;28;20039;-70
2023/03/17 07:11:36;;;;;;;6.13;3.00;;;;;;;4.42;75.16;100501.03;6002025;28;20447;-71
2023/03/17 07:14:34;;;;;;;9.82;3.25;;;;;;;4.64;74.49;100509.00;6001732;28;20042;-69
2023/03/17 07:17:29;;;;;;;7.72;2.92;;;;;;;4.74;74.18;100503.91;6002037;28;20043;-69
2023/03/17 07:20:25;;;;;;;7.37;3.30;;;;;;;4.89;74.69;100507.19;6002368;28;20498;-69
2023/03/17 07:23:21;;;;;;;8.50;2.92;;;;;;;5.19;73.69;100497.00;6001749;28;20050;-71
2023/03/17 07:26:17;;;;;;;7.78;3.38;;;;;;;5.82;70.92;100491.13;6005747;28;20430;-70
2023/03/17 07:29:13;;;;;;;5.40;2.90;;;;;;;6.40;66.62;100484.69;6007134;28;20049;-70
2023/03/17 07:32:09;;;;;;;7.72;2.58;;;;;;;6.90;63.56;100480.53;6005518;28;20336;-69
2023/03/17 07:35:04;;;;;;;4.82;2.10;;;;;;;7.35;61.82;100502.16;6006941;28;20402;-71
2023/03/17 07:38:01;;;;;;;6.72;3.15;;;;;;;7.45;60.85;100484.56;6006437;28;20026;-71
2023/03/17 07:40:57;;;;;;;7.72;3.50;;;;;;;7.46;60.04;100467.78;6006168;28;20034;-70
2023/03/17 07:43:52;;;;;;;6.30;2.93;;;;;;;7.57;59.56;100472.97;6006145;28;20035;-70
2023/03/17 07:46:48;;;;;;;5.67;2.50;;;;;;;7.88;58.93;100485.16;6005992;28;20437;-69
2023/03/17 07:49:43;;;;;;;7.93;2.70;;;;;;;8.13;57.93;100470.63;6006816;28;20114;-69
2023/03/17 07:52:39;;;;;;;5.10;2.40;;;;;;;8.17;58.40;100486.09;6005651;28;20351;-70
2023/03/17 07:55:37;;;;;;;6.60;2.80;;;;;;;8.15;58.39;100488.00;6006105;28;20033;-70
2023/03/17 07:58:32;;;;;;;7.03;2.70;;;;;;;7.89;59.41;100475.44;6006490;28;20065;-70
2023/03/17 08:01:28;;;;;;;7.60;3.60;;;;;;;7.94;60.12;100474.06;6005273;28;20027;-70
2023/03/17 08:04:23;;;;;;;7.32;2.85;;;;;;;8.18;60.17;100471.06;6005294;28;20483;-70
2023/03/17 08:07:18;;;;;;;5.90;2.70;;;;;;;8.29;60.54;100463.03;6005676;28;20037;-70
2023/03/17 08:10:13;;;;;;;8.90;3.33;;;;;;;8.06;60.71;100467.72;6005667;28;20023;-69
2023/03/17 08:13:09;;;;;;;7.27;3.20;;;;;;;7.96;61.18;100468.66;6005315;28;20043;-70
2023/03/17 08:16:05;;;;;;;7.40;3.20;;;;;;;7.94;62.16;100457.38;6005561;28;20115;-70
2023/03/17 08:19:02;;;;;;;8.48;3.00;;;;;;;7.95;62.45;100454.63;6006017;28;20442;-70
2023/03/17 08:22:00;;;;;;;6.47;2.78;;;;;;;8.03;62.46;100452.13;6004609;28;20043;-73
2023/03/17 08:24:55;;;;;;;6.40;2.75;;;;;;;8.07;62.22;100448.25;6005606;28;20069;-73
2023/03/17 08:27:50;;;;;;;7.23;2.73;;;;;;;8.32;61.72;100468.88;6005999;28;20466;-72
2023/03/17 08:30:47;;;;;;;9.35;2.97;;;;;;;8.34;62.32;100468.75;6005150;28;20084;-71
2023/03/17 08:33:48;;;;;;;7.70;2.78;;;;;;;8.58;61.95;100458.63;6002546;28;20033;-73
2023/03/17 08:36:43;;;;;;;5.80;2.70;;;;;;;8.82;60.54;100474.03;6004107;28;20035;-71
2023/03/17 08:39:39;;;;;;;9.40;3.20;;;;;;;9.14;59.74;100471.91;6005422;28;20632;-73
2023/03/17 08:42:36;;;;;;;7.40;2.67;;;;;;;9.50;59.05;100459.66;6004511;28;20329;-71
2023/03/17 08:45:31;;;;;;;6.32;2.80;;;;;;;9.82;57.36;100465.38;6004891;28;20042;-72
2023/03/17 08:48:27;;;;;;;7.40;2.65;;;;;;;10.32;55.15;100457.00;6005275;28;20038;-71
2023/03/17 08:51:25;;;;;;;6.72;2.85;;;;;;;11.00;53.46;100464.25;6004749;28;20030;-71
2023/03/17 08:54:20;;;;;;;5.00;2.05;;;;;;;11.23;51.37;100451.28;6003475;28;20042;-71
2023/03/17 08:57:16;;;;;;;5.13;2.13;;;;;;;11.63;50.38;100456.81;6004907;28;20498;-71
2023/03/17 09:00:14;;;;;;;6.57;2.50;;;;;;;11.96;48.82;100443.69;6004991;28;20723;-71
2023/03/17 09:03:10;;;;;;;4.95;2.17;;;;;;;12.32;47.19;100455.72;6004147;28;20035;-72
2023/03/17 09:06:06;;;;;;;5.03;2.00;;;;;;;12.71;45.03;100451.47;6004596;28;20122;-72
2023/03/17 09:09:02;;;;;;;5.57;2.13;;;;;;;12.39;45.15;100443.47;6004858;28;20113;-72
2023/03/17 09:11:57;;;;;;;8.40;2.63;;;;;;;12.59;44.88;100420.84;6003966;28;20565;-72
2023/03/17 09:14:54;;;;;;;5.20;1.77;;;;;;;12.94;44.22;100447.13;6004567;28;20493;-72
2023/03/17 09:17:50;;;;;;;5.35;1.85;;;;;;;12.86;43.84;100440.97;6004360;28;20293;-72
2023/03/17 09:20:45;;;;;;;4.67;1.77;;;;;;;13.13;42.46;100435.31;6004267;28;20901;-72
2023/03/17 09:23:41;;;;;;;5.28;1.67;;;;;;;13.02;42.94;100417.81;6004044;28;20037;-72
2023/03/17 09:26:36;;;;;;;6.93;1.77;;;;;;;12.94;42.66;100436.47;6004342;28;20066;-72
2023/03/17 09:29:32;;;;;;;4.03;1.80;;;;;;;12.70;42.48;100423.19;6004125;28;20045;-72
2023/03/17 09:32:27;;;;;;;6.50;1.25;;;;;;;12.77;43.40;100416.22;6003490;28;20031;-71
2023/03/17 09:35:24;;;;;;;2.63;1.30;;;;;;;12.82;43.96;100423.69;6004005;28;20103;-72
2023/03/17 09:38:21;;;;;;;9.00;2.10;;;;;;;12.81;45.82;100414.88;5999022;28;20034;-71
2023/03/17 09:41:32;;;;;;;5.47;2.08;;;;;;;12.46;48.94;100421.34;6003866;28;20066;-72
2023/03/17 09:44:33;;;;;;;6.18;2.30;;;;;;;12.31;49.25;100423.00;6003306;28;20039;-71
2023/03/17 09:48:06;;;;;;;5.97;2.20;;;;;;;12.45;50.23;100413.53;6018795;28;20402;-72
2023/03/17 09:51:07;;;;;;;7.07;2.40;;;;;;;12.35;49.06;100407.53;6003334;28;20041;-72
2023/03/17 09:54:10;;;;;;;6.40;2.55;;;;;;;12.46;49.41;100416.03;6002788;28;20046;-71
2023/03/17 09:57:12;;;;;;;7.38;2.30;;;;;;;12.67;49.42;100391.59;6000301;28;20046;-73
2023/03/17 10:00:21;;;;;;;5.25;1.77;;;;;;;12.89;48.53;100406.88;6003497;28;20023;-72
2023/03/17 10:03:17;;;;;;;3.92;1.90;;;;;;;13.03;46.97;100408.84;6002098;28;21804;-73
2023/03/17 10:06:22;;;;;;;8.38;2.63;;;;;;;12.96;46.92;100429.13;6003441;28;20038;-69
2023/03/17 10:09:34;;;;;;;8.57;1.85;;;;;;;13.00;48.17;100427.81;6002407;28;20065;-71
2023/03/17 10:12:45;;;;;;;4.78;2.00;;;;;;;13.20;47.66;100419.50;6017514;28;20034;-70
2023/03/17 10:15:56;;;;;;;5.68;2.38;;;;;;;13.18;47.60;100411.66;6002161;28;20093;-70
2023/03/17 10:18:55;;;;;;;4.10;2.10;;;;;;;13.25;47.45;100418.00;6003143;28;20045;-70
2023/03/17 10:21:53;;;;;;;6.25;2.08;;;;;;;13.06;47.60;100429.81;6017482;28;20038;-72
2023/03/17 10:24:51;;;;;;;4.18;1.50;;;;;;;12.98;47.49;100405.03;6003282;28;20034;-70
2023/03/17 10:27:56;;;;;;;4.55;2.40;;;;;;;13.09;47.13;100407.38;6002847;28;20107;-70
2023/03/17 10:30:52;;;;;;;4.60;1.90;;;;;;;13.25;48.42;100406.50;6003031;28;20037;-71
2023/03/17 10:33:51;;;;;;;5.03;2.00;;;;;;;13.23;47.91;100401.34;6001890;28;20496;-70
2023/03/17 10:36:59;;;;;;;5.50;2.00;;;;;;;13.36;48.32;100400.81;6002546;28;20039;-70
2023/03/17 10:39:56;;;;;;;5.28;2.17;;;;;;;13.64;47.08;100407.38;6002753;28;20031;-70
2023/03/17 10:42:55;;;;;;;5.60;2.45;;;;;;;13.88;46.51;100409.09;6002204;28;20031;-70
2023/03/17 10:45:58;;;;;;;5.00;2.13;;;;;;;13.60;47.18;100416.69;6002504;28;20049;-71
2023/03/17 10:49:05;;;;;;;5.53;2.22;;;;;;;13.80;47.23;100423.28;6003077;28;20031;-71
2023/03/17 10:52:06;;;;;;;5.90;2.22;;;;;;;13.93;47.81;100428.88;6002013;28;20147;-73
2023/03/17 10:55:05;;;;;;;5.13;2.45;;;;;;;14.11;48.16;100410.78;6002628;28;20038;-71
2023/03/17 10:58:14;;;;;;;4.07;2.20;;;;;;;14.16;43.21;100403.06;6002349;28;20070;-73
2023/03/17 11:01:18;;;;;;;6.18;1.80;;;;;;;14.68;44.36;100397.88;6002144;28;20060;-72
2023/03/17 11:04:34;;;;;;;3.78;1.55;;;;;;;14.63;40.78;100392.25;6001779;28;20034;-71
2023/03/17 11:07:37;;;;;;;5.25;2.13;;;;;;;14.97;41.21;100394.44;6002493;28;20048;-71
2023/03/17 11:10:36;;;;;;;3.70;1.60;;;;;;;14.75;38.79;100372.13;6002480;28;20027;-71
2023/03/17 11:13:31;;;;;;;4.20;1.50;;;;;;;14.76;39.42;100379.13;6001395;28;20030;-71
2023/03/17 11:16:27;;;;;;;3.30;1.40;;;;;;;15.12;38.12;100384.59;6002134;28;20031;-72
2023/03/17 11:19:42;;;;;;;3.40;1.50;;;;;;;15.26;37.72;100381.09;6002260;28;20329;-71
2023/03/17 11:22:46;;;;;;;3.75;1.50;;;;;;;15.51;37.82;100378.19;6016767;28;20074;-71
2023/03/17 11:25:43;;;;;;;3.50;1.52;;;;;;;15.31;37.08;100354.66;6000863;28;20043;-71
2023/03/17 11:28:39;;;;;;;3.13;1.70;;;;;;;14.84;37.74;100351.50;6001235;28;20549;-71
2023/03/17 11:32:19;;;;;;;3.03;1.35;;;;;;;15.28;38.18;100360.38;6001012;28;20042;-72
2023/03/17 11:35:27;;;;;;;3.17;1.30;;;;;;;15.65;37.48;100358.63;5999141;28;20039;-72
2023/03/17 11:38:28;;;;;;;5.30;2.25;;;;;;;15.42;38.13;100342.66;6000424;28;20117;-71
2023/03/17 11:41:32;;;;;;;3.78;1.85;;;;;;;15.19;37.89;100360.66;6000995;28;20483;-72
2023/03/17 11:44:52;;;;;;;3.78;1.50;;;;;;;15.46;38.46;100370.72;6001037;28;20057;-71
2023/03/17 11:47:53;;;;;;;3.25;1.70;;;;;;;15.37;37.91;100361.94;6001972;28;20073;-71
2023/03/17 11:50:59;;;;;;;4.07;1.60;;;;;;;15.29;37.88;100359.38;6001867;28;20058;-71
2023/03/17 11:54:17;;;;;;;3.90;1.88;;;;;;;15.33;38.45;100378.50;6000168;28;20398;-70
2023/03/17 11:57:22;;;;;;;5.65;2.10;;;;;;;15.30;38.62;100371.69;6016666;28;20073;-71
2023/03/17 12:00:19;;;;;;;3.50;1.70;;;;;;;15.37;38.27;100377.16;6000566;28;20058;-71
2023/03/17 12:03:21;;;;;;;4.22;1.73;;;;;;;15.34;38.15;100378.34;6001423;28;20093;-71
2023/03/17 12:06:31;;;;;;;4.05;1.52;;;;;;;15.12;38.52;100349.88;6001685;28;20031;-71
2023/03/17 12:09:36;;;;;;;5.10;1.80;;;;;;;15.18;39.13;100373.19;6000624;28;20045;-70
2023/03/17 12:12:36;;;;;;;4.38;1.58;;;;;;;15.24;38.89;100356.44;6002615;28;20037;-71
2023/03/17 12:15:37;;;;;;;4.82;1.67;;;;;;;15.30;39.34;100336.16;6005753;28;20410;-71
2023/03/17 12:18:45;;;;;;;3.42;1.50;;;;;;;15.84;39.15;100341.97;6005839;28;20391;-72
2023/03/17 12:21:51;;;;;;;4.82;2.10;;;;;;;15.86;38.41;100351.47;6004729;28;20043;-71
2023/03/17 12:24:52;;;;;;;2.47;1.50;;;;;;;15.92;38.09;100332.00;6020606;28;20035;-71
2023/03/17 12:27:55;;;;;;;4.18;2.00;;;;;;;15.59;38.63;100337.97;6004789;28;20501;-71
2023/03/17 12:30:51;;;;;;;4.32;2.03;;;;;;;15.92;39.34;100329.31;6004947;28;20565;-71
2023/03/17 12:34:08;;;;;;;4.75;1.75;;;;;;;15.97;39.23;100331.41;6019885;28;20043;-71
2023/03/17 12:37:03;;;;;;;3.83;1.60;;;;;;;16.42;37.94;100316.78;6005193;28;20042;-72
2023/03/17 12:40:06;;;;;;;4.77;2.10;;;;;;;15.88;39.59;100327.19;6005422;28;20390;-72
2023/03/17 12:43:47;;;;;;;4.78;1.50;;;;;;;16.14;39.08;100319.47;5996417;28;20634;-71
2023/03/17 12:46:51;;;;;;;4.65;2.20;;;;;;;16.14;39.21;100318.63;6001498;28;20038;-72
2023/03/17 12:50:09;;;;;;;5.10;2.33;;;;;;;15.98;39.78;100320.50;6003531;28;20031;-72
2023/03/17 12:53:29;;;;;;;6.47;2.60;;;;;;;15.93;40.42;100314.09;6004273;28;20479;-71
2023/03/17 12:56:30;;;;;;;5.60;1.50;;;;;;;16.04;39.38;100311.72;6019544;28;20038;-72
2023/03/17 12:59:26;;;;;;;3.10;1.65;;;;;;;16.23;39.55;100310.25;6004408;28;20050;-71
2023/03/17 13:02:28;;;;;;;4.40;2.05;;;;;;;15.92;39.64;100293.72;6004108;28;20058;-71
2023/03/17 13:05:29;;;;;;;5.50;2.05;;;;;;;16.05;40.45;100309.91;6004755;28;20100;-71
2023/03/17 13:08:30;;;;;;;4.38;2.08;;;;;;;16.37;39.40;100312.03;6019871;28;20152;-72
2023/03/17 13:11:45;;;;;;;6.10;2.20;;;;;;;16.11;39.67;100301.13;6004420;28;20465;-71
2023/03/17 13:14:43;;;;;;;5.78;2.45;;;;;;;16.31;39.58;100299.41;6003346;28;20122;-71
2023/03/17 13:17:39;;;;;;;6.50;2.40;;;;;;;16.19;39.85;100284.09;6004526;28;20035;-72
2023/03/17 13:20:40;;;;;;;5.67;2.00;;;;;;;16.09;39.86;100287.06;6004464;28;20086;-71
2023/03/17 13:23:47;;;;;;;4.93;1.60;;;;;;;15.98;40.59;100287.63;6003180;28;20423;-71
2023/03/17 13:27:00;;;;;;;5.38;2.50;;;;;;;15.89;40.83;100296.78;6002858;28;20043;-71
2023/03/17 13:29:56;;;;;;;6.60;1.90;;;;;;;16.05;41.19;100296.53;6019297;28;20038;-71
2023/03/17 13:32:55;;;;;;;4.65;2.17;;;;;;;16.32;40.13;100277.00;6003080;28;20073;-71
2023/03/17 13:36:19;;;;;;;8.65;2.20;;;;;;;16.41;40.01;100291.91;6003942;28;20041;-71
2023/03/17 13:39:27;;;;;;;6.35;1.70;;;;;;;16.35;40.42;100279.28;5994187;28;20394;-71
2023/03/17 13:42:42;;;;;;;7.20;2.15;;;;;;;16.34;40.88;100274.94;6003594;28;20037;-71
2023/03/17 13:45:39;;;;;;;10.23;1.90;;;;;;;16.44;40.73;100269.28;6002772;28;20042;-71
2023/03/17 13:48:36;;;;;;;5.35;1.77;;;;;;;16.43;40.78;100273.78;6004027;28;20177;-71
2023/03/17 13:51:32;;;;;;;10.60;2.00;;;;;;;16.32;40.83;100277.00;6018489;28;20182;-71
2023/03/17 13:54:31;;;;;;;4.78;1.73;;;;;;;16.25;41.36;100275.31;6003268;28;20038;-71